Latest Weather Observations for Thargomindah

IDQ60801

Issued at 11:52 am EST Sunday 18 November 2018 (issued every 10 minutes, with the page automatically refreshed every 10 minutes)

About weather observations | Map of weather stations | Latest weather observations for QLD | Other Formats
Station Details ID: 045025 Name: THARGOMINDAH AIRPORT Lat: -27.99 Lon: 143.81 Height: 130.89 m
Data from the previous 72 hours. | See also: Recent months at Thargomindah
Date/Time
EST
Temp
°C
App
Temp
°C
Dew
Point
°C
Rel
Hum
%
Delta-T
°C
Wind Press
QNH
hPa
Press
MSL
hPa
Rain since
9am
mm
Dir  Spd
km/h
Gust
km/h
Spd
kts
Gust
kts
18/11:30am 33.7 28.8 -0.8 11 16.8 ESE 15 24 8 13 1012.9 - 0.0
18/11:00am 32.7 27.3 -1.6 11 16.3 NE 17 24 9 13 1013.2 - 0.0
18/10:30am 33.1 27.7 -1.3 11 16.5 E 17 28 9 15 1013.5 - 0.0
18/10:00am 31.7 25.9 -0.1 13 15.4 E 20 28 11 15 1013.6 - 0.0
18/09:30am 31.0 25.3 -0.6 13 15.1 E 19 32 10 17 1013.7 - 0.0
18/09:00am 29.8 23.4 -1.5 13 14.6 E 22 30 12 16 1013.8 1013.0 0.0
18/08:30am 28.4 22.4 -1.6 14 13.8 E 20 30 11 16 1013.9 - 0.0
18/08:00am 27.2 20.7 -2.6 14 13.4 E 22 32 12 17 1013.8 - 0.0
18/07:30am 26.4 19.4 -3.2 14 13.1 ESE 24 35 13 19 1013.5 - 0.0
18/07:00am 24.8 18.7 -3.6 15 12.3 SE 19 24 10 13 1013.3 - 0.0
18/06:30am 23.7 18.0 -3.6 16 11.7 SE 17 20 9 11 1013.3 - 0.0
18/06:00am 22.8 18.0 -2.7 18 11.0 SE 13 17 7 9 1013.0 1012.2 0.0
18/05:30am 22.6 17.8 -2.9 18 11.0 SE 13 17 7 9 1012.7 - 0.0
18/05:00am 23.0 18.1 -3.3 17 11.2 SE 13 17 7 9 1012.5 - 0.0
18/04:30am 23.6 18.3 -3.7 16 11.6 SE 15 20 8 11 1012.1 - 0.0
18/04:00am 24.2 18.5 -4.0 15 12.0 SE 17 22 9 12 1012.1 - 0.0
18/03:30am 24.5 18.8 -3.8 15 12.2 SE 17 20 9 11 1012.1 - 0.0
18/03:00am 24.8 19.1 -3.6 15 12.3 SE 17 24 9 13 1012.1 1011.2 0.0
18/02:30am 25.2 19.4 -4.2 14 12.6 SSE 17 20 9 11 1012.1 - 0.0
18/02:00am 25.7 20.4 -3.8 14 12.8 SE 15 20 8 11 1012.3 - 0.0
18/01:30am 26.2 20.4 -4.4 13 13.2 SE 17 22 9 12 1012.4 - 0.0
18/01:00am 26.7 20.9 -5.0 12 13.6 SSE 17 26 9 14 1012.6 - 0.0
18/12:30am 26.8 21.4 -4.9 12 13.6 SSE 15 20 8 11 1012.8 - 0.0
18/12:00am 26.9 21.5 -4.9 12 13.7 SSE 15 19 8 10 1013.0 1012.2 0.0
 
Date/Time
EST
Temp
°C
App
Temp
°C
Dew
Point
°C
Rel
Hum
%
Delta-T
°C
Wind Press
QNH
hPa
Press
MSL
hPa
Rain since
9am
mm
Dir  Spd
km/h
Gust
km/h
Spd
kts
Gust
kts
17/11:30pm 26.9 21.8 -4.9 12 13.7 SSE 13 17 7 9 1013.2 - 0.0
17/11:00pm 27.1 22.3 -5.9 11 13.9 S 11 13 6 7 1013.3 - 0.0
17/10:30pm 27.7 22.6 -5.4 11 14.2 SSE 13 15 7 8 1013.4 - 0.0
17/10:00pm 28.2 23.5 -5.0 11 14.4 SSE 11 13 6 7 1013.3 - 0.0
17/09:30pm 29.4 24.3 -5.4 10 15.1 S 13 17 7 9 1013.1 - 0.0
17/09:00pm 30.1 25.0 -4.8 10 15.4 SSE 13 17 7 9 1013.1 1012.3 0.0
17/08:30pm 30.7 25.5 -5.8 9 15.9 S 13 17 7 9 1012.7 - 0.0
17/08:00pm 31.2 26.5 -5.4 9 16.2 SSE 11 17 6 9 1012.4 - 0.0
17/07:30pm 32.2 26.8 -4.6 9 16.6 S 15 20 8 11 1012.2 - 0.0
17/07:00pm 32.9 26.6 -4.1 9 16.9 S 20 28 11 15 1011.8 - 0.0
17/06:30pm 33.7 27.5 -3.5 9 17.3 S 20 26 11 14 1011.5 - 0.0
17/06:00pm 34.1 28.8 -3.2 9 17.5 SE 15 26 8 14 1011.2 1010.3 0.0
17/05:30pm 34.3 28.3 -3.1 9 17.6 S 19 28 10 15 1011.1 - 0.0
17/05:00pm 34.6 29.0 -2.9 9 17.7 S 17 28 9 15 1011.1 - 0.0
17/04:30pm 34.7 28.7 -2.8 9 17.8 SE 19 26 10 14 1011.3 - 0.0
17/04:00pm 34.9 29.3 -2.6 9 17.8 S 17 24 9 13 1011.3 - 0.0
17/03:30pm 34.6 28.6 -2.9 9 17.7 SE 19 28 10 15 1011.4 - 0.0
17/03:00pm 34.6 28.6 -2.9 9 17.7 SSW 19 28 10 15 1011.6 1010.7 0.0
17/02:30pm 35.1 29.2 -2.5 9 17.9 S 19 37 10 20 1012.0 - 0.0
17/02:00pm 34.2 28.9 -3.2 9 17.5 SSE 15 26 8 14 1012.5 - 0.0
17/01:30pm 34.6 29.4 -2.9 9 17.7 SE 15 28 8 15 1012.9 - 0.0
17/01:00pm 33.9 29.0 -3.4 9 17.4 SE 13 22 7 12 1013.4 - 0.0
17/12:30pm 33.2 26.9 -3.9 9 17.1 SSE 20 33 11 18 1013.8 - 0.0
17/12:00pm 33.1 26.2 -2.6 10 16.8 ESE 24 35 13 19 1014.1 1013.3 0.0
17/11:30am 32.1 25.7 -2.0 11 16.1 SSE 22 32 12 17 1014.5 - 0.0
17/11:00am 32.1 26.2 -2.0 11 16.1 SE 19 30 10 16 1014.8 - 0.0
17/10:30am 31.3 25.2 -2.6 11 15.7 ESE 20 32 11 17 1015.3 - 0.0
17/10:00am 31.3 24.5 -1.5 12 15.5 E 24 33 13 18 1015.4 - 0.0
17/09:30am 30.1 24.0 -3.6 11 15.2 ESE 19 28 10 15 1015.6 - 0.0
17/09:00am 29.1 22.1 -3.2 12 14.6 ESE 24 35 13 19 1015.8 1015.0 0.0
17/08:30am 28.2 21.2 -3.9 12 14.2 ESE 24 35 13 19 1015.8 - 0.0
17/08:00am 27.8 19.2 -4.2 12 14.0 SE 32 43 17 23 1015.4 - 0.0
17/07:30am 26.0 18.9 -4.5 13 13.1 SE 24 39 13 21 1015.4 - 0.0
17/07:00am 25.7 21.1 -3.8 14 12.8 SE 11 17 6 9 1016.2 - 0.0
17/06:30am 25.7 18.7 -3.8 14 12.8 SE 24 35 13 19 1015.5 - 0.0
17/06:00am 25.6 18.7 -2.9 15 12.6 SE 24 32 13 17 1015.0 1014.2 0.0
17/05:30am 25.5 19.3 -3.0 15 12.5 SE 20 24 11 13 1014.7 - 0.0
17/05:00am 26.2 20.2 -3.4 14 13.0 SSE 19 24 10 13 1014.6 - 0.0
17/04:30am 26.4 20.2 -3.2 14 13.1 SE 20 28 11 15 1014.0 - 0.0
17/04:00am 27.0 20.9 -3.7 13 13.5 SSE 19 26 10 14 1013.6 - 0.0
17/03:30am 27.4 21.2 -3.4 13 13.7 SE 20 35 11 19 1013.3 - 0.0
17/03:00am 27.7 21.5 -3.2 13 13.8 SE 20 32 11 17 1013.3 1012.5 0.0
17/02:30am 28.1 21.5 -2.9 13 13.9 SE 22 32 12 17 1013.0 - 0.0
17/02:00am 28.4 22.3 -2.6 13 14.1 SSE 20 28 11 15 1013.0 - 0.0
17/01:30am 28.7 22.6 -2.4 13 14.2 SSE 20 30 11 16 1013.2 - 0.0
17/01:00am 28.9 23.5 -1.2 14 14.0 SE 17 26 9 14 1013.4 - 0.0
17/12:30am 29.3 23.3 -1.9 13 14.4 SE 20 30 11 16 1013.5 - 0.0
17/12:00am 29.6 23.9 -0.7 14 14.3 SSE 19 28 10 15 1013.7 1012.9 0.0
 
Date/Time
EST
Temp
°C
App
Temp
°C
Dew
Point
°C
Rel
Hum
%
Delta-T
°C
Wind Press
QNH
hPa
Press
MSL
hPa
Rain since
9am
mm
Dir  Spd
km/h
Gust
km/h
Spd
kts
Gust
kts
16/11:30pm 30.1 23.9 -0.3 14 14.5 SSE 22 32 12 17 1013.8 - 0.0
16/11:00pm 30.6 24.8 0.1 14 14.7 SSE 20 28 11 15 1013.9 - 0.0
16/10:30pm 31.3 25.4 1.6 15 14.8 SSE 22 30 12 16 1013.6 - 0.0
16/10:00pm 31.7 26.4 2.8 16 14.7 S 20 26 11 14 1013.7 - 0.0
16/09:30pm 32.0 26.3 3.1 16 14.8 S 22 28 12 15 1013.6 - 0.0
16/09:00pm 32.4 26.3 5.0 18 14.5 S 26 35 14 19 1013.3 1012.5 0.0
16/08:30pm 32.9 25.8 5.5 18 14.7 S 32 41 17 22 1013.0 - 0.0
16/08:00pm 33.5 27.3 4.2 16 15.4 S 26 39 14 21 1012.4 - 0.0
16/07:30pm 34.3 28.6 4.9 16 15.7 S 24 30 13 16 1012.2 - 0.0
16/07:00pm 34.9 29.5 4.4 15 16.2 S 22 28 12 15 1011.9 - 0.0
16/06:30pm 35.4 30.8 3.8 14 16.7 S 17 22 9 12 1011.7 - 0.0
16/06:00pm 35.7 31.2 4.1 14 16.8 S 17 20 9 11 1011.3 1010.4 0.0
16/05:30pm 35.8 31.7 4.2 14 16.9 S 15 20 8 11 1011.2 - 0.0
16/05:00pm 36.4 31.6 4.6 14 17.1 SSW 19 26 10 14 1011.3 - 0.0
16/04:30pm 36.1 31.8 3.3 13 17.3 SSW 15 24 8 13 1011.3 - 0.0
16/04:00pm 36.9 33.5 4.0 13 17.6 SW 11 19 6 10 1011.3 - 0.0
16/03:30pm 36.3 32.6 4.6 14 17.1 SW 13 26 7 14 1011.7 - 0.0
16/03:00pm 36.6 32.4 3.7 13 17.5 WSW 15 24 8 13 1012.0 1011.1 0.0
16/02:30pm 36.9 32.5 5.0 14 17.3 S 17 32 9 17 1012.5 - 0.0
16/02:00pm 36.4 33.9 4.6 14 17.1 SE 7 13 4 7 1012.9 - 0.0
16/01:30pm 36.6 33.6 5.8 15 16.9 S 11 20 6 11 1013.4 - 0.0
16/01:00pm 36.1 33.4 5.4 15 16.7 WSW 9 15 5 8 1013.8 - 0.0
16/12:30pm 35.1 32.2 4.6 15 16.3 NW 9 13 5 7 1014.4 - 0.0
16/12:00pm 35.3 32.8 4.8 15 16.4 N 7 13 4 7 1014.8 1014.0 0.0
16/11:30am 35.0 31.9 5.4 16 16.0 E 11 24 6 13 1015.3 - 0.0
16/11:00am 34.0 30.3 4.6 16 15.6 ENE 13 24 7 13 1015.7 - 0.0
16/10:30am 33.6 29.5 6.0 18 15.0 ENE 17 24 9 13 1016.1 - 0.0
16/10:00am 32.4 27.7 5.0 18 14.5 E 19 26 10 14 1016.3 - 0.0
16/09:30am 31.7 27.0 5.3 19 14.0 E 19 26 10 14 1016.4 - 0.0
16/09:00am 30.3 25.4 4.9 20 13.3 E 20 28 11 15 1016.6 1015.7 0.0
16/08:30am 29.9 25.0 5.2 21 13.0 E 20 32 11 17 1016.8 - 0.0
16/08:00am 28.3 23.0 5.2 23 12.0 ESE 22 32 12 17 1016.8 - 0.0
16/07:30am 27.6 21.6 5.2 24 11.6 ESE 26 32 14 17 1016.6 - 0.0
16/07:00am 27.1 22.4 6.0 26 11.0 ESE 20 28 11 15 1016.6 - 0.0
16/06:30am 26.2 21.7 6.3 28 10.4 SE 19 24 10 13 1016.5 - 0.0
16/06:00am 25.9 21.3 6.5 29 10.2 SE 20 24 11 13 1016.1 1015.2 0.0
16/05:30am 25.7 21.7 6.8 30 9.9 SE 17 22 9 12 1015.6 - 0.0
16/05:00am 25.9 21.9 6.5 29 10.2 SE 17 24 9 13 1015.4 - 0.0
16/04:30am 26.1 21.7 6.7 29 10.2 SE 19 26 10 14 1015.1 - 0.0
16/04:00am 26.5 22.2 7.0 29 10.3 SE 19 26 10 14 1015.1 - 0.0
16/03:30am 27.0 22.5 6.9 28 10.7 SE 20 28 11 15 1015.0 - 0.0
16/03:00am 27.3 22.9 7.2 28 10.7 SE 20 30 11 16 1015.0 1014.2 0.0
16/02:30am 27.7 23.3 7.5 28 10.9 SE 20 30 11 16 1015.1 - 0.0
16/02:00am 28.2 23.0 7.4 27 11.2 SE 24 32 13 17 1015.0 - 0.0
16/01:30am 28.6 23.8 7.2 26 11.5 SE 22 35 12 19 1015.0 - 0.0
16/01:00am 29.1 23.9 7.1 25 11.9 SSE 24 33 13 18 1015.0 - 0.0
16/12:30am 29.7 25.0 7.6 25 12.1 SE 22 30 12 16 1015.4 - 0.0
16/12:00am 30.2 25.6 8.0 25 12.2 SSE 22 33 12 18 1015.6 1014.8 0.0
 
Date/Time
EST
Temp
°C
App
Temp
°C
Dew
Point
°C
Rel
Hum
%
Delta-T
°C
Wind Press
QNH
hPa
Press
MSL
hPa
Rain since
9am
mm
Dir  Spd
km/h
Gust
km/h
Spd
kts
Gust
kts
15/11:30pm 30.7 26.2 8.4 25 12.4 SSE 22 30 12 16 1015.7 - 0.0
15/11:00pm 30.9 27.1 9.2 26 12.2 SSE 19 26 10 14 1015.7 - 0.0
15/10:30pm 31.0 27.6 9.3 26 12.3 SSE 17 22 9 12 1015.6 - 0.0
15/10:00pm 30.8 28.9 9.1 26 12.2 S 9 11 5 6 1015.4 - 0.0
15/09:30pm 31.4 29.5 9.0 25 12.6 SSE 9 13 5 7 1015.2 - 0.0
15/09:00pm 31.8 30.0 8.1 23 13.2 SSE 7 9 4 5 1015.1 1014.3 0.0
15/08:30pm 32.8 30.3 8.3 22 13.7 SSE 11 15 6 8 1014.7 - 0.0
15/08:00pm 33.6 29.4 7.5 20 14.5 S 19 26 10 14 1014.5 - 0.0
15/07:30pm 33.9 30.5 7.8 20 14.6 S 15 20 8 11 1014.2 - 0.0
15/07:00pm 34.4 31.4 7.5 19 15.0 S 13 17 7 9 1014.0 - 0.0
15/06:30pm 35.1 30.7 6.4 17 15.8 S 19 24 10 13 1013.7 - 0.0
15/06:00pm 35.1 30.9 5.5 16 16.1 SSW 17 20 9 11 1013.5 1012.7 0.0
15/05:30pm 35.6 31.4 5.9 16 16.3 SSW 17 26 9 14 1013.4 - 0.0
15/05:00pm 36.1 31.5 5.4 15 16.7 SSW 19 26 10 14 1013.3 - 0.0
15/04:30pm 36.2 35.0 4.5 14 17.0 CALM 0 17 0 9 1013.4 - 0.0
15/04:00pm 37.2 33.3 5.3 14 17.4 S 15 28 8 15 1013.5 - 0.0
15/03:30pm 36.3 32.4 5.5 15 16.8 W 15 22 8 12 1013.7 - 0.0
15/03:00pm 36.5 31.9 5.7 15 16.9 SW 19 26 10 14 1013.9 1013.1 0.0
15/02:30pm 36.3 34.2 6.5 16 16.5 SSW 7 15 4 8 1014.3 - 0.0
15/02:00pm 35.9 33.3 6.2 16 16.4 SW 9 19 5 10 1014.7 - 0.0
15/01:30pm 36.4 34.3 6.6 16 16.6 NW 7 19 4 10 1015.0 - 0.0
15/01:00pm 35.7 31.8 6.9 17 16.0 NNW 17 24 9 13 1015.4 - 0.0
15/12:30pm 35.0 32.0 7.9 19 15.3 WSW 13 20 7 11 1015.8 - 0.0
15/12:00pm 35.0 32.4 7.9 19 15.2 NW 11 19 6 10 1016.2 1015.3 0.0

Other Formats:

Comma delimited format used in spreadsheet applications
http://www.bom.gov.au/fwo/IDQ60801/IDQ60801.95492.axf

JavaScript Object Notation format (JSON) in row-major order
http://www.bom.gov.au/fwo/IDQ60801/IDQ60801.95492.json